sensor_id;sensor_type;location;lat;lon;timestamp;P1;durP1;ratioP1;P2;durP2;ratioP2
69511;SDS011;70777;52.034;4.644;2023-09-08T00:00:29;14.73;;;11.10;;
69511;SDS011;70777;52.034;4.644;2023-09-08T00:02:54;15.77;;;11.15;;
69511;SDS011;70777;52.034;4.644;2023-09-08T00:05:20;15.70;;;11.00;;
69511;SDS011;70777;52.034;4.644;2023-09-08T00:07:46;14.65;;;10.15;;
69511;SDS011;70777;52.034;4.644;2023-09-08T00:10:11;15.98;;;11.57;;
69511;SDS011;70777;52.034;4.644;2023-09-08T00:12:37;11.50;;;8.93;;
69511;SDS011;70777;52.034;4.644;2023-09-08T00:15:03;12.07;;;9.00;;
69511;SDS011;70777;52.034;4.644;2023-09-08T00:17:28;18.67;;;10.95;;
69511;SDS011;70777;52.034;4.644;2023-09-08T00:19:54;13.80;;;9.80;;
69511;SDS011;70777;52.034;4.644;2023-09-08T00:22:19;12.27;;;8.32;;
69511;SDS011;70777;52.034;4.644;2023-09-08T00:24:45;11.98;;;8.75;;
69511;SDS011;70777;52.034;4.644;2023-09-08T00:27:13;11.13;;;8.20;;
69511;SDS011;70777;52.034;4.644;2023-09-08T00:29:39;14.27;;;9.05;;
69511;SDS011;70777;52.034;4.644;2023-09-08T00:32:04;10.98;;;8.23;;
69511;SDS011;70777;52.034;4.644;2023-09-08T00:34:30;12.82;;;8.20;;
69511;SDS011;70777;52.034;4.644;2023-09-08T00:36:56;15.07;;;10.73;;
69511;SDS011;70777;52.034;4.644;2023-09-08T00:39:21;12.60;;;9.50;;
69511;SDS011;70777;52.034;4.644;2023-09-08T00:41:47;19.17;;;12.57;;
69511;SDS011;70777;52.034;4.644;2023-09-08T00:44:12;14.40;;;10.75;;
69511;SDS011;70777;52.034;4.644;2023-09-08T00:46:38;15.35;;;9.95;;
69511;SDS011;70777;52.034;4.644;2023-09-08T00:49:04;14.52;;;10.82;;
69511;SDS011;70777;52.034;4.644;2023-09-08T00:51:30;14.35;;;9.82;;
69511;SDS011;70777;52.034;4.644;2023-09-08T00:53:56;15.38;;;9.68;;
69511;SDS011;70777;52.034;4.644;2023-09-08T00:56:21;14.20;;;10.23;;
69511;SDS011;70777;52.034;4.644;2023-09-08T00:58:47;13.40;;;9.70;;
69511;SDS011;70777;52.034;4.644;2023-09-08T01:01:13;15.52;;;11.70;;
69511;SDS011;70777;52.034;4.644;2023-09-08T01:03:39;14.88;;;10.57;;
69511;SDS011;70777;52.034;4.644;2023-09-08T01:06:05;14.80;;;10.43;;
69511;SDS011;70777;52.034;4.644;2023-09-08T01:08:31;17.42;;;11.18;;
69511;SDS011;70777;52.034;4.644;2023-09-08T01:10:56;14.55;;;10.43;;
69511;SDS011;70777;52.034;4.644;2023-09-08T01:13:22;14.98;;;10.77;;
69511;SDS011;70777;52.034;4.644;2023-09-08T01:15:47;15.25;;;10.35;;
69511;SDS011;70777;52.034;4.644;2023-09-08T01:18:14;17.23;;;11.90;;
69511;SDS011;70777;52.034;4.644;2023-09-08T01:23:15;14.88;;;10.80;;
69511;SDS011;70777;52.034;4.644;2023-09-08T01:28:14;18.02;;;11.20;;
69511;SDS011;70777;52.034;4.644;2023-09-08T01:30:40;13.73;;;10.43;;
69511;SDS011;70777;52.034;4.644;2023-09-08T01:33:06;17.95;;;10.52;;
69511;SDS011;70777;52.034;4.644;2023-09-08T01:35:31;18.50;;;12.88;;
69511;SDS011;70777;52.034;4.644;2023-09-08T01:37:57;18.08;;;12.32;;
69511;SDS011;70777;52.034;4.644;2023-09-08T01:40:22;16.55;;;11.32;;
69511;SDS011;70777;52.034;4.644;2023-09-08T01:42:48;17.50;;;12.27;;
69511;SDS011;70777;52.034;4.644;2023-09-08T01:45:14;16.37;;;11.50;;
69511;SDS011;70777;52.034;4.644;2023-09-08T01:47:39;17.55;;;12.20;;
69511;SDS011;70777;52.034;4.644;2023-09-08T01:50:05;13.18;;;10.00;;
69511;SDS011;70777;52.034;4.644;2023-09-08T01:52:30;16.50;;;11.55;;
69511;SDS011;70777;52.034;4.644;2023-09-08T01:54:56;16.15;;;11.40;;
69511;SDS011;70777;52.034;4.644;2023-09-08T01:57:21;15.73;;;10.73;;
69511;SDS011;70777;52.034;4.644;2023-09-08T01:59:47;13.07;;;9.65;;
69511;SDS011;70777;52.034;4.644;2023-09-08T02:02:13;15.98;;;10.15;;
69511;SDS011;70777;52.034;4.644;2023-09-08T02:04:39;12.82;;;9.73;;
69511;SDS011;70777;52.034;4.644;2023-09-08T02:07:04;12.93;;;9.05;;
69511;SDS011;70777;52.034;4.644;2023-09-08T02:09:31;17.10;;;11.15;;
69511;SDS011;70777;52.034;4.644;2023-09-08T02:12:01;17.73;;;11.18;;
69511;SDS011;70777;52.034;4.644;2023-09-08T02:14:26;15.55;;;10.93;;
69511;SDS011;70777;52.034;4.644;2023-09-08T02:16:52;14.60;;;10.82;;
69511;SDS011;70777;52.034;4.644;2023-09-08T02:19:18;18.20;;;11.68;;
69511;SDS011;70777;52.034;4.644;2023-09-08T02:21:44;20.75;;;13.30;;
69511;SDS011;70777;52.034;4.644;2023-09-08T02:24:09;18.33;;;13.07;;
69511;SDS011;70777;52.034;4.644;2023-09-08T02:26:35;18.15;;;12.48;;
69511;SDS011;70777;52.034;4.644;2023-09-08T02:29:00;25.08;;;14.82;;
69511;SDS011;70777;52.034;4.644;2023-09-08T02:31:26;19.70;;;13.75;;
69511;SDS011;70777;52.034;4.644;2023-09-08T02:33:52;20.63;;;14.35;;
69511;SDS011;70777;52.034;4.644;2023-09-08T02:36:17;18.88;;;13.15;;
69511;SDS011;70777;52.034;4.644;2023-09-08T02:38:43;20.20;;;14.32;;
69511;SDS011;70777;52.034;4.644;2023-09-08T02:41:08;18.98;;;13.35;;
69511;SDS011;70777;52.034;4.644;2023-09-08T02:43:33;20.83;;;12.85;;
69511;SDS011;70777;52.034;4.644;2023-09-08T02:45:59;17.83;;;13.13;;
69511;SDS011;70777;52.034;4.644;2023-09-08T02:48:24;18.05;;;12.77;;
69511;SDS011;70777;52.034;4.644;2023-09-08T02:50:50;17.30;;;12.05;;
69511;SDS011;70777;52.034;4.644;2023-09-08T02:53:15;16.83;;;12.45;;
69511;SDS011;70777;52.034;4.644;2023-09-08T02:55:45;19.15;;;12.80;;
69511;SDS011;70777;52.034;4.644;2023-09-08T02:58:11;15.93;;;11.68;;
69511;SDS011;70777;52.034;4.644;2023-09-08T03:00:36;21.00;;;13.77;;
69511;SDS011;70777;52.034;4.644;2023-09-08T03:03:01;19.25;;;13.82;;
69511;SDS011;70777;52.034;4.644;2023-09-08T03:05:27;21.23;;;13.57;;
69511;SDS011;70777;52.034;4.644;2023-09-08T03:07:53;18.00;;;13.48;;
69511;SDS011;70777;52.034;4.644;2023-09-08T03:10:18;21.98;;;13.35;;
69511;SDS011;70777;52.034;4.644;2023-09-08T03:12:43;17.23;;;12.98;;
69511;SDS011;70777;52.034;4.644;2023-09-08T03:15:09;18.83;;;13.25;;
69511;SDS011;70777;52.034;4.644;2023-09-08T03:17:35;18.58;;;13.07;;
69511;SDS011;70777;52.034;4.644;2023-09-08T03:20:00;16.88;;;10.95;;
69511;SDS011;70777;52.034;4.644;2023-09-08T03:22:26;24.02;;;15.82;;
69511;SDS011;70777;52.034;4.644;2023-09-08T03:24:51;25.55;;;15.70;;
69511;SDS011;70777;52.034;4.644;2023-09-08T03:27:17;22.48;;;14.63;;
69511;SDS011;70777;52.034;4.644;2023-09-08T03:29:42;21.08;;;14.55;;
69511;SDS011;70777;52.034;4.644;2023-09-08T03:32:08;19.92;;;14.52;;
69511;SDS011;70777;52.034;4.644;2023-09-08T03:34:33;23.50;;;14.85;;
69511;SDS011;70777;52.034;4.644;2023-09-08T03:36:59;21.77;;;12.98;;
69511;SDS011;70777;52.034;4.644;2023-09-08T03:39:24;22.88;;;14.32;;
69511;SDS011;70777;52.034;4.644;2023-09-08T03:41:49;22.67;;;14.75;;
69511;SDS011;70777;52.034;4.644;2023-09-08T03:44:15;18.83;;;13.73;;
69511;SDS011;70777;52.034;4.644;2023-09-08T03:46:40;23.20;;;13.48;;
69511;SDS011;70777;52.034;4.644;2023-09-08T03:49:06;16.25;;;11.55;;
69511;SDS011;70777;52.034;4.644;2023-09-08T03:51:32;22.45;;;14.98;;
69511;SDS011;70777;52.034;4.644;2023-09-08T03:53:57;23.13;;;14.07;;
69511;SDS011;70777;52.034;4.644;2023-09-08T03:56:23;19.33;;;12.73;;
69511;SDS011;70777;52.034;4.644;2023-09-08T03:58:48;19.65;;;12.15;;
69511;SDS011;70777;52.034;4.644;2023-09-08T04:01:14;16.33;;;10.68;;
69511;SDS011;70777;52.034;4.644;2023-09-08T04:03:40;16.42;;;11.43;;
69511;SDS011;70777;52.034;4.644;2023-09-08T04:06:05;16.10;;;11.73;;
69511;SDS011;70777;52.034;4.644;2023-09-08T04:08:30;16.52;;;11.32;;
69511;SDS011;70777;52.034;4.644;2023-09-08T04:10:56;17.58;;;12.27;;
69511;SDS011;70777;52.034;4.644;2023-09-08T04:13:21;15.73;;;12.30;;
69511;SDS011;70777;52.034;4.644;2023-09-08T04:15:47;17.15;;;11.73;;
69511;SDS011;70777;52.034;4.644;2023-09-08T04:18:12;15.30;;;10.65;;
69511;SDS011;70777;52.034;4.644;2023-09-08T04:20:38;15.45;;;11.25;;
69511;SDS011;70777;52.034;4.644;2023-09-08T04:23:03;18.33;;;11.00;;
69511;SDS011;70777;52.034;4.644;2023-09-08T04:25:29;14.02;;;10.02;;
69511;SDS011;70777;52.034;4.644;2023-09-08T04:27:54;15.98;;;10.77;;
69511;SDS011;70777;52.034;4.644;2023-09-08T04:30:19;15.45;;;11.40;;
69511;SDS011;70777;52.034;4.644;2023-09-08T04:32:45;22.23;;;12.25;;
69511;SDS011;70777;52.034;4.644;2023-09-08T04:35:10;14.52;;;10.70;;
69511;SDS011;70777;52.034;4.644;2023-09-08T04:37:36;19.67;;;12.55;;
69511;SDS011;70777;52.034;4.644;2023-09-08T04:40:02;17.38;;;12.98;;
69511;SDS011;70777;52.034;4.644;2023-09-08T04:42:29;19.80;;;12.73;;
69511;SDS011;70777;52.034;4.644;2023-09-08T04:44:56;22.33;;;15.63;;
69511;SDS011;70777;52.034;4.644;2023-09-08T04:47:21;21.67;;;14.10;;
69511;SDS011;70777;52.034;4.644;2023-09-08T04:49:47;22.08;;;15.10;;
69511;SDS011;70777;52.034;4.644;2023-09-08T04:52:12;22.58;;;14.75;;
69511;SDS011;70777;52.034;4.644;2023-09-08T04:54:38;22.60;;;15.75;;
69511;SDS011;70777;52.034;4.644;2023-09-08T04:57:04;19.90;;;14.75;;
69511;SDS011;70777;52.034;4.644;2023-09-08T04:59:29;21.88;;;14.35;;
69511;SDS011;70777;52.034;4.644;2023-09-08T05:01:56;19.77;;;13.52;;
69511;SDS011;70777;52.034;4.644;2023-09-08T05:06:48;21.03;;;13.20;;
69511;SDS011;70777;52.034;4.644;2023-09-08T05:09:13;18.15;;;12.30;;
69511;SDS011;70777;52.034;4.644;2023-09-08T05:11:39;19.17;;;11.55;;
69511;SDS011;70777;52.034;4.644;2023-09-08T05:14:08;19.15;;;12.48;;
69511;SDS011;70777;52.034;4.644;2023-09-08T05:16:34;16.90;;;11.43;;
69511;SDS011;70777;52.034;4.644;2023-09-08T05:21:36;17.03;;;12.07;;
69511;SDS011;70777;52.034;4.644;2023-09-08T05:24:02;22.05;;;14.00;;
69511;SDS011;70777;52.034;4.644;2023-09-08T05:26:28;20.47;;;13.80;;
69511;SDS011;70777;52.034;4.644;2023-09-08T05:28:54;19.13;;;12.68;;
69511;SDS011;70777;52.034;4.644;2023-09-08T05:31:19;18.92;;;13.98;;
69511;SDS011;70777;52.034;4.644;2023-09-08T05:33:45;21.73;;;14.30;;
69511;SDS011;70777;52.034;4.644;2023-09-08T05:36:10;21.73;;;15.25;;
69511;SDS011;70777;52.034;4.644;2023-09-08T05:38:36;23.73;;;14.90;;
69511;SDS011;70777;52.034;4.644;2023-09-08T05:41:04;21.08;;;15.05;;
69511;SDS011;70777;52.034;4.644;2023-09-08T05:43:32;23.25;;;15.05;;
69511;SDS011;70777;52.034;4.644;2023-09-08T05:46:01;22.63;;;14.80;;
69511;SDS011;70777;52.034;4.644;2023-09-08T05:48:26;17.05;;;12.60;;
69511;SDS011;70777;52.034;4.644;2023-09-08T05:50:52;18.55;;;13.07;;
69511;SDS011;70777;52.034;4.644;2023-09-08T05:53:18;23.50;;;15.00;;
69511;SDS011;70777;52.034;4.644;2023-09-08T05:55:43;20.85;;;13.38;;
69511;SDS011;70777;52.034;4.644;2023-09-08T05:58:09;23.17;;;15.20;;
69511;SDS011;70777;52.034;4.644;2023-09-08T06:00:35;19.27;;;14.13;;
69511;SDS011;70777;52.034;4.644;2023-09-08T06:03:01;18.65;;;13.63;;
69511;SDS011;70777;52.034;4.644;2023-09-08T06:05:27;22.25;;;14.40;;
69511;SDS011;70777;52.034;4.644;2023-09-08T06:07:53;21.17;;;14.00;;
69511;SDS011;70777;52.034;4.644;2023-09-08T06:10:27;23.17;;;13.82;;
69511;SDS011;70777;52.034;4.644;2023-09-08T06:12:53;19.45;;;13.52;;
69511;SDS011;70777;52.034;4.644;2023-09-08T06:15:21;20.25;;;13.32;;
69511;SDS011;70777;52.034;4.644;2023-09-08T06:17:47;23.40;;;15.68;;
69511;SDS011;70777;52.034;4.644;2023-09-08T06:20:13;18.52;;;15.15;;
69511;SDS011;70777;52.034;4.644;2023-09-08T06:22:38;19.85;;;13.32;;
69511;SDS011;70777;52.034;4.644;2023-09-08T06:25:04;18.37;;;12.87;;
69511;SDS011;70777;52.034;4.644;2023-09-08T06:27:30;23.00;;;14.05;;
69511;SDS011;70777;52.034;4.644;2023-09-08T06:29:55;16.83;;;11.83;;
69511;SDS011;70777;52.034;4.644;2023-09-08T06:32:22;18.08;;;13.38;;
69511;SDS011;70777;52.034;4.644;2023-09-08T06:34:50;17.77;;;12.88;;
69511;SDS011;70777;52.034;4.644;2023-09-08T06:37:15;22.42;;;13.85;;
69511;SDS011;70777;52.034;4.644;2023-09-08T06:39:41;21.98;;;14.02;;
69511;SDS011;70777;52.034;4.644;2023-09-08T06:42:06;24.53;;;15.03;;
69511;SDS011;70777;52.034;4.644;2023-09-08T06:44:32;20.63;;;15.70;;
69511;SDS011;70777;52.034;4.644;2023-09-08T06:46:57;18.93;;;13.40;;
69511;SDS011;70777;52.034;4.644;2023-09-08T06:49:23;18.03;;;11.77;;
69511;SDS011;70777;52.034;4.644;2023-09-08T06:51:48;17.77;;;12.20;;
69511;SDS011;70777;52.034;4.644;2023-09-08T06:54:14;17.30;;;13.23;;
69511;SDS011;70777;52.034;4.644;2023-09-08T06:56:39;15.70;;;11.90;;
69511;SDS011;70777;52.034;4.644;2023-09-08T06:59:05;14.70;;;12.00;;
69511;SDS011;70777;52.034;4.644;2023-09-08T07:01:30;16.67;;;12.40;;
69511;SDS011;70777;52.034;4.644;2023-09-08T07:03:56;17.37;;;12.13;;
69511;SDS011;70777;52.034;4.644;2023-09-08T07:06:21;16.67;;;11.60;;
69511;SDS011;70777;52.034;4.644;2023-09-08T07:08:47;19.15;;;11.40;;
69511;SDS011;70777;52.034;4.644;2023-09-08T07:11:15;15.20;;;11.93;;
69511;SDS011;70777;52.034;4.644;2023-09-08T07:13:40;13.63;;;11.23;;
69511;SDS011;70777;52.034;4.644;2023-09-08T07:16:06;13.93;;;10.87;;
69511;SDS011;70777;52.034;4.644;2023-09-08T07:18:31;13.63;;;11.70;;
69511;SDS011;70777;52.034;4.644;2023-09-08T07:21:01;16.92;;;11.95;;
69511;SDS011;70777;52.034;4.644;2023-09-08T07:23:27;21.17;;;11.27;;
69511;SDS011;70777;52.034;4.644;2023-09-08T07:25:53;17.52;;;11.82;;
69511;SDS011;70777;52.034;4.644;2023-09-08T07:28:18;16.70;;;11.32;;
69511;SDS011;70777;52.034;4.644;2023-09-08T07:33:09;15.20;;;11.40;;
69511;SDS011;70777;52.034;4.644;2023-09-08T07:38:06;16.35;;;11.20;;
69511;SDS011;70777;52.034;4.644;2023-09-08T07:40:32;15.00;;;11.02;;
69511;SDS011;70777;52.034;4.644;2023-09-08T07:42:59;15.27;;;10.93;;
69511;SDS011;70777;52.034;4.644;2023-09-08T07:50:20;13.60;;;10.43;;
69511;SDS011;70777;52.034;4.644;2023-09-08T07:52:46;14.50;;;11.27;;
69511;SDS011;70777;52.034;4.644;2023-09-08T07:55:12;15.18;;;11.23;;
69511;SDS011;70777;52.034;4.644;2023-09-08T08:00:03;15.10;;;10.20;;
69511;SDS011;70777;52.034;4.644;2023-09-08T08:02:29;13.38;;;11.48;;
69511;SDS011;70777;52.034;4.644;2023-09-08T08:04:57;16.77;;;11.63;;
69511;SDS011;70777;52.034;4.644;2023-09-08T08:07:22;12.93;;;10.95;;
69511;SDS011;70777;52.034;4.644;2023-09-08T08:09:48;14.25;;;11.43;;
69511;SDS011;70777;52.034;4.644;2023-09-08T08:12:13;15.90;;;11.45;;
69511;SDS011;70777;52.034;4.644;2023-09-08T08:14:39;14.88;;;11.48;;
69511;SDS011;70777;52.034;4.644;2023-09-08T08:17:04;18.10;;;12.20;;
69511;SDS011;70777;52.034;4.644;2023-09-08T08:19:30;14.98;;;11.85;;
69511;SDS011;70777;52.034;4.644;2023-09-08T08:21:55;14.35;;;12.05;;
69511;SDS011;70777;52.034;4.644;2023-09-08T08:24:22;15.00;;;12.35;;
69511;SDS011;70777;52.034;4.644;2023-09-08T08:26:48;18.20;;;12.60;;
69511;SDS011;70777;52.034;4.644;2023-09-08T08:29:13;17.30;;;12.63;;
69511;SDS011;70777;52.034;4.644;2023-09-08T08:31:39;14.88;;;12.77;;
69511;SDS011;70777;52.034;4.644;2023-09-08T08:34:05;21.90;;;12.30;;
69511;SDS011;70777;52.034;4.644;2023-09-08T08:36:30;17.52;;;12.45;;
69511;SDS011;70777;52.034;4.644;2023-09-08T08:38:56;17.75;;;12.27;;
69511;SDS011;70777;52.034;4.644;2023-09-08T08:41:21;13.25;;;11.35;;
69511;SDS011;70777;52.034;4.644;2023-09-08T08:43:49;14.88;;;11.75;;
69511;SDS011;70777;52.034;4.644;2023-09-08T08:46:16;13.05;;;11.55;;
69511;SDS011;70777;52.034;4.644;2023-09-08T08:48:42;13.82;;;9.27;;
69511;SDS011;70777;52.034;4.644;2023-09-08T08:51:08;14.23;;;11.52;;
69511;SDS011;70777;52.034;4.644;2023-09-08T08:53:34;18.08;;;11.48;;
69511;SDS011;70777;52.034;4.644;2023-09-08T08:56:00;13.60;;;10.98;;
69511;SDS011;70777;52.034;4.644;2023-09-08T08:58:27;13.82;;;12.23;;
69511;SDS011;70777;52.034;4.644;2023-09-08T09:00:53;15.38;;;13.88;;
69511;SDS011;70777;52.034;4.644;2023-09-08T09:03:22;15.90;;;12.88;;
69511;SDS011;70777;52.034;4.644;2023-09-08T09:05:51;15.38;;;12.98;;
69511;SDS011;70777;52.034;4.644;2023-09-08T09:08:17;17.52;;;11.73;;
69511;SDS011;70777;52.034;4.644;2023-09-08T09:10:43;14.65;;;10.32;;
69511;SDS011;70777;52.034;4.644;2023-09-08T09:13:08;14.18;;;11.80;;
69511;SDS011;70777;52.034;4.644;2023-09-08T09:15:36;13.05;;;10.52;;
69511;SDS011;70777;52.034;4.644;2023-09-08T09:18:02;15.73;;;11.88;;
69511;SDS011;70777;52.034;4.644;2023-09-08T09:20:29;14.65;;;11.90;;
69511;SDS011;70777;52.034;4.644;2023-09-08T09:22:55;16.23;;;11.05;;
69511;SDS011;70777;52.034;4.644;2023-09-08T09:25:24;15.70;;;11.10;;
69511;SDS011;70777;52.034;4.644;2023-09-08T09:27:55;16.10;;;10.98;;
69511;SDS011;70777;52.034;4.644;2023-09-08T09:30:22;18.10;;;11.27;;
69511;SDS011;70777;52.034;4.644;2023-09-08T09:32:48;18.55;;;11.40;;
69511;SDS011;70777;52.034;4.644;2023-09-08T09:35:39;12.48;;;11.05;;
69511;SDS011;70777;52.034;4.644;2023-09-08T09:38:05;16.13;;;12.13;;
69511;SDS011;70777;52.034;4.644;2023-09-08T09:40:30;14.82;;;11.23;;
69511;SDS011;70777;52.034;4.644;2023-09-08T09:42:58;14.48;;;10.85;;
69511;SDS011;70777;52.034;4.644;2023-09-08T09:45:27;14.30;;;10.82;;
69511;SDS011;70777;52.034;4.644;2023-09-08T09:47:53;12.52;;;10.43;;
69511;SDS011;70777;52.034;4.644;2023-09-08T09:50:31;14.32;;;11.32;;
69511;SDS011;70777;52.034;4.644;2023-09-08T09:52:58;11.70;;;9.90;;
69511;SDS011;70777;52.034;4.644;2023-09-08T09:55:33;12.67;;;11.27;;
69511;SDS011;70777;52.034;4.644;2023-09-08T09:57:59;12.07;;;10.50;;
69511;SDS011;70777;52.034;4.644;2023-09-08T10:00:27;13.90;;;11.10;;
69511;SDS011;70777;52.034;4.644;2023-09-08T10:02:53;14.63;;;10.80;;
69511;SDS011;70777;52.034;4.644;2023-09-08T10:05:19;13.73;;;10.27;;
69511;SDS011;70777;52.034;4.644;2023-09-08T10:07:46;13.40;;;11.00;;
69511;SDS011;70777;52.034;4.644;2023-09-08T10:10:12;13.90;;;10.68;;
69511;SDS011;70777;52.034;4.644;2023-09-08T10:12:38;15.32;;;11.85;;
69511;SDS011;70777;52.034;4.644;2023-09-08T10:15:03;10.70;;;8.93;;
69511;SDS011;70777;52.034;4.644;2023-09-08T10:17:31;15.05;;;9.88;;
69511;SDS011;70777;52.034;4.644;2023-09-08T10:19:56;14.85;;;10.13;;
69511;SDS011;70777;52.034;4.644;2023-09-08T10:22:23;11.45;;;9.45;;
69511;SDS011;70777;52.034;4.644;2023-09-08T10:24:53;13.10;;;10.18;;
69511;SDS011;70777;52.034;4.644;2023-09-08T10:27:20;14.88;;;9.85;;
69511;SDS011;70777;52.034;4.644;2023-09-08T10:29:46;12.25;;;9.00;;
69511;SDS011;70777;52.034;4.644;2023-09-08T10:32:15;11.93;;;8.65;;
69511;SDS011;70777;52.034;4.644;2023-09-08T10:34:42;10.57;;;7.82;;
69511;SDS011;70777;52.034;4.644;2023-09-08T10:37:21;11.32;;;7.53;;
69511;SDS011;70777;52.034;4.644;2023-09-08T10:39:47;7.35;;;6.10;;
69511;SDS011;70777;52.034;4.644;2023-09-08T10:47:23;10.23;;;7.35;;
69511;SDS011;70777;52.034;4.644;2023-09-08T10:49:55;7.93;;;6.50;;
69511;SDS011;70777;52.034;4.644;2023-09-08T10:52:23;9.32;;;6.45;;
69511;SDS011;70777;52.034;4.644;2023-09-08T10:54:49;8.98;;;6.95;;
69511;SDS011;70777;52.034;4.644;2023-09-08T10:57:17;12.48;;;6.25;;
69511;SDS011;70777;52.034;4.644;2023-09-08T10:59:56;10.35;;;7.03;;
69511;SDS011;70777;52.034;4.644;2023-09-08T11:02:36;10.32;;;7.15;;
69511;SDS011;70777;52.034;4.644;2023-09-08T11:05:09;7.20;;;5.47;;
69511;SDS011;70777;52.034;4.644;2023-09-08T11:07:39;8.43;;;6.68;;
69511;SDS011;70777;52.034;4.644;2023-09-08T11:10:06;8.50;;;6.00;;
69511;SDS011;70777;52.034;4.644;2023-09-08T11:12:32;13.35;;;7.30;;
69511;SDS011;70777;52.034;4.644;2023-09-08T11:14:58;10.88;;;7.30;;
69511;SDS011;70777;52.034;4.644;2023-09-08T11:17:29;12.10;;;7.78;;
69511;SDS011;70777;52.034;4.644;2023-09-08T11:19:55;10.90;;;6.93;;
69511;SDS011;70777;52.034;4.644;2023-09-08T11:22:25;11.27;;;7.72;;
69511;SDS011;70777;52.034;4.644;2023-09-08T11:24:55;11.27;;;7.10;;
69511;SDS011;70777;52.034;4.644;2023-09-08T11:27:25;11.90;;;6.50;;
69511;SDS011;70777;52.034;4.644;2023-09-08T11:29:55;8.50;;;6.20;;
69511;SDS011;70777;52.034;4.644;2023-09-08T11:32:20;9.55;;;6.35;;
69511;SDS011;70777;52.034;4.644;2023-09-08T11:34:46;12.13;;;5.72;;
69511;SDS011;70777;52.034;4.644;2023-09-08T11:37:12;11.20;;;5.72;;
69511;SDS011;70777;52.034;4.644;2023-09-08T11:39:45;7.43;;;5.22;;
69511;SDS011;70777;52.034;4.644;2023-09-08T11:42:12;7.13;;;4.50;;
69511;SDS011;70777;52.034;4.644;2023-09-08T11:44:38;6.45;;;5.15;;
69511;SDS011;70777;52.034;4.644;2023-09-08T11:47:09;9.73;;;5.10;;
69511;SDS011;70777;52.034;4.644;2023-09-08T11:49:35;7.68;;;5.20;;
69511;SDS011;70777;52.034;4.644;2023-09-08T11:52:02;10.30;;;5.28;;
69511;SDS011;70777;52.034;4.644;2023-09-08T11:54:29;7.65;;;5.07;;
69511;SDS011;70777;52.034;4.644;2023-09-08T11:56:59;7.60;;;5.28;;
69511;SDS011;70777;52.034;4.644;2023-09-08T11:59:26;7.35;;;4.82;;
69511;SDS011;70777;52.034;4.644;2023-09-08T12:01:52;10.30;;;5.15;;
69511;SDS011;70777;52.034;4.644;2023-09-08T12:04:18;9.07;;;5.78;;
69511;SDS011;70777;52.034;4.644;2023-09-08T12:06:48;11.45;;;5.38;;
69511;SDS011;70777;52.034;4.644;2023-09-08T12:09:14;9.50;;;5.40;;
69511;SDS011;70777;52.034;4.644;2023-09-08T12:11:39;14.20;;;5.75;;
69511;SDS011;70777;52.034;4.644;2023-09-08T12:14:08;10.27;;;5.03;;
69511;SDS011;70777;52.034;4.644;2023-09-08T12:16:34;7.20;;;3.92;;
69511;SDS011;70777;52.034;4.644;2023-09-08T12:19:03;8.20;;;4.60;;
69511;SDS011;70777;52.034;4.644;2023-09-08T12:21:29;9.02;;;4.53;;
69511;SDS011;70777;52.034;4.644;2023-09-08T12:23:56;11.18;;;5.65;;
69511;SDS011;70777;52.034;4.644;2023-09-08T12:26:24;11.68;;;4.85;;
69511;SDS011;70777;52.034;4.644;2023-09-08T12:28:59;8.02;;;4.60;;
69511;SDS011;70777;52.034;4.644;2023-09-08T12:31:27;9.30;;;4.75;;
69511;SDS011;70777;52.034;4.644;2023-09-08T12:33:53;8.18;;;5.95;;
69511;SDS011;70777;52.034;4.644;2023-09-08T12:36:18;6.32;;;4.72;;
69511;SDS011;70777;52.034;4.644;2023-09-08T12:38:52;7.13;;;5.07;;
69511;SDS011;70777;52.034;4.644;2023-09-08T12:41:18;8.15;;;5.43;;
69511;SDS011;70777;52.034;4.644;2023-09-08T12:43:44;10.82;;;4.80;;
69511;SDS011;70777;52.034;4.644;2023-09-08T12:46:11;9.05;;;6.97;;
69511;SDS011;70777;52.034;4.644;2023-09-08T12:48:49;6.30;;;5.05;;
69511;SDS011;70777;52.034;4.644;2023-09-08T12:51:15;8.20;;;6.38;;
69511;SDS011;70777;52.034;4.644;2023-09-08T12:53:40;12.32;;;7.18;;
69511;SDS011;70777;52.034;4.644;2023-09-08T12:56:06;9.18;;;5.47;;
69511;SDS011;70777;52.034;4.644;2023-09-08T12:58:31;9.23;;;6.60;;
69511;SDS011;70777;52.034;4.644;2023-09-08T13:01:19;8.65;;;6.03;;
69511;SDS011;70777;52.034;4.644;2023-09-08T13:03:44;9.57;;;5.57;;
69511;SDS011;70777;52.034;4.644;2023-09-08T13:06:10;9.77;;;5.50;;
69511;SDS011;70777;52.034;4.644;2023-09-08T13:08:38;6.95;;;4.57;;
69511;SDS011;70777;52.034;4.644;2023-09-08T13:11:07;7.60;;;5.18;;
69511;SDS011;70777;52.034;4.644;2023-09-08T13:13:32;9.43;;;5.72;;
69511;SDS011;70777;52.034;4.644;2023-09-08T13:16:10;10.40;;;5.70;;
69511;SDS011;70777;52.034;4.644;2023-09-08T13:18:39;7.78;;;5.05;;
69511;SDS011;70777;52.034;4.644;2023-09-08T13:21:21;8.88;;;4.88;;
69511;SDS011;70777;52.034;4.644;2023-09-08T13:23:47;8.23;;;5.22;;
69511;SDS011;70777;52.034;4.644;2023-09-08T13:26:13;5.45;;;4.25;;
69511;SDS011;70777;52.034;4.644;2023-09-08T13:28:38;5.68;;;4.38;;
69511;SDS011;70777;52.034;4.644;2023-09-08T13:31:04;8.05;;;4.22;;
69511;SDS011;70777;52.034;4.644;2023-09-08T13:33:32;11.45;;;5.18;;
69511;SDS011;70777;52.034;4.644;2023-09-08T13:35:58;7.30;;;4.63;;
69511;SDS011;70777;52.034;4.644;2023-09-08T13:38:27;6.63;;;4.70;;
69511;SDS011;70777;52.034;4.644;2023-09-08T13:40:53;11.25;;;4.57;;
69511;SDS011;70777;52.034;4.644;2023-09-08T13:43:21;7.97;;;4.80;;
69511;SDS011;70777;52.034;4.644;2023-09-08T13:45:47;7.03;;;4.40;;
69511;SDS011;70777;52.034;4.644;2023-09-08T13:48:15;5.63;;;4.53;;
69511;SDS011;70777;52.034;4.644;2023-09-08T13:50:41;5.72;;;4.10;;
69511;SDS011;70777;52.034;4.644;2023-09-08T13:53:07;8.00;;;3.70;;
69511;SDS011;70777;52.034;4.644;2023-09-08T13:55:33;6.38;;;3.78;;
69511;SDS011;70777;52.034;4.644;2023-09-08T13:57:59;6.93;;;4.00;;
69511;SDS011;70777;52.034;4.644;2023-09-08T14:00:27;5.13;;;3.58;;
69511;SDS011;70777;52.034;4.644;2023-09-08T14:02:53;5.18;;;3.38;;
69511;SDS011;70777;52.034;4.644;2023-09-08T14:05:19;6.95;;;4.15;;
69511;SDS011;70777;52.034;4.644;2023-09-08T14:07:44;6.43;;;3.72;;
69511;SDS011;70777;52.034;4.644;2023-09-08T14:10:10;6.47;;;3.60;;
69511;SDS011;70777;52.034;4.644;2023-09-08T14:12:35;7.50;;;4.20;;
69511;SDS011;70777;52.034;4.644;2023-09-08T14:15:07;6.07;;;4.25;;
69511;SDS011;70777;52.034;4.644;2023-09-08T14:17:34;5.85;;;3.88;;
69511;SDS011;70777;52.034;4.644;2023-09-08T14:20:00;5.63;;;3.88;;
69511;SDS011;70777;52.034;4.644;2023-09-08T14:22:25;6.70;;;3.78;;
69511;SDS011;70777;52.034;4.644;2023-09-08T14:24:51;6.35;;;4.22;;
69511;SDS011;70777;52.034;4.644;2023-09-08T14:27:19;8.68;;;4.40;;
69511;SDS011;70777;52.034;4.644;2023-09-08T14:32:10;7.00;;;4.95;;
69511;SDS011;70777;52.034;4.644;2023-09-08T14:37:04;5.80;;;3.78;;
69511;SDS011;70777;52.034;4.644;2023-09-08T14:44:20;8.20;;;3.40;;
69511;SDS011;70777;52.034;4.644;2023-09-08T14:46:48;6.07;;;3.90;;
69511;SDS011;70777;52.034;4.644;2023-09-08T14:49:19;6.47;;;4.57;;
69511;SDS011;70777;52.034;4.644;2023-09-08T14:51:45;8.18;;;4.60;;
69511;SDS011;70777;52.034;4.644;2023-09-08T14:54:11;6.07;;;3.83;;
69511;SDS011;70777;52.034;4.644;2023-09-08T14:56:36;12.18;;;6.18;;
69511;SDS011;70777;52.034;4.644;2023-09-08T14:59:02;10.75;;;4.63;;
69511;SDS011;70777;52.034;4.644;2023-09-08T15:01:29;8.57;;;3.95;;